Time;durP1;ratioP1;P1;durP2;ratioP2;P2;SDS_P1;SDS_P2;PMS_P1;PMS_P2;Temp;Humidity;BMP_temperature;BMP_pressure;BME280_temperature;BME280_humidity;BME280_pressure;Samples;Min_cycle;Max_cycle;Signal;HPM_P1;HPM_P2
2021/05/17 00:02:15;;;;;;;1999.90;999.90;;;10.30;99.90;;;;;;5115165;28;20206;-46
2021/05/17 00:17:09;;;;;;;1999.90;999.90;;;10.20;99.90;;;;;;5040785;27;3661080;-44
2021/05/17 00:19:36;;;;;;;1999.90;999.90;;;10.20;99.90;;;;;;5151754;27;20174;-50
2021/05/17 00:22:04;;;;;;;1999.90;999.90;;;10.20;99.90;;;;;;5151675;27;20261;-45
2021/05/17 00:24:31;;;;;;;1999.90;999.90;;;10.20;99.90;;;;;;5151628;27;20200;-45
2021/05/17 00:26:58;;;;;;;1999.90;999.90;;;10.20;99.90;;;;;;5151900;27;20180;-45
2021/05/17 00:29:26;;;;;;;1999.90;999.90;;;10.10;99.90;;;;;;5151858;27;20623;-46
2021/05/17 00:31:53;;;;;;;1999.90;999.90;;;10.00;99.90;;;;;;5151716;27;20173;-45
2021/05/17 00:34:20;;;;;;;1999.90;999.90;;;10.00;99.90;;;;;;5151548;27;20643;-45
2021/05/17 00:36:48;;;;;;;1999.90;999.90;;;10.00;99.90;;;;;;5151558;27;20671;-45
2021/05/17 00:39:15;;;;;;;1999.90;999.90;;;10.00;99.90;;;;;;5151409;27;20238;-46
2021/05/17 00:41:43;;;;;;;1999.90;999.90;;;10.00;99.90;;;;;;5151447;27;20635;-50
2021/05/17 00:44:10;;;;;;;1999.90;999.90;;;10.10;99.90;;;;;;5151326;27;20612;-45
2021/05/17 00:46:39;;;;;;;1999.90;999.90;;;10.00;99.90;;;;;;5151227;27;20213;-45
2021/05/17 00:49:06;;;;;;;1999.90;999.90;;;10.20;99.90;;;;;;5133228;27;20166;-45
2021/05/17 00:51:33;;;;;;;1999.90;999.90;;;10.20;99.90;;;;;;5151187;27;20531;-51
2021/05/17 00:54:05;;;;;;;1999.90;999.90;;;10.20;99.90;;;;;;5151219;27;20625;-45
2021/05/17 00:56:35;;;;;;;1999.90;999.90;;;10.20;99.90;;;;;;5151074;27;20244;-45
2021/05/17 00:59:02;;;;;;;1999.90;999.90;;;10.20;99.90;;;;;;5151113;27;20195;-45
2021/05/17 01:01:29;;;;;;;1999.90;999.90;;;10.10;99.90;;;;;;5150939;27;20629;-45
2021/05/17 01:03:56;;;;;;;1999.90;999.90;;;10.10;99.90;;;;;;5151099;27;20162;-45
2021/05/17 01:06:25;;;;;;;1999.90;999.90;;;10.10;99.90;;;;;;5150892;27;20186;-45
2021/05/17 01:09:07;;;;;;;1999.90;999.90;;;10.10;99.90;;;;;;5150918;27;20162;-45
2021/05/17 01:11:35;;;;;;;1999.90;999.90;;;10.10;99.90;;;;;;5150930;27;20249;-47
2021/05/17 01:14:05;;;;;;;1999.90;999.90;;;10.00;99.90;;;;;;5150815;27;20166;-45
2021/05/17 01:16:33;;;;;;;1999.90;999.90;;;10.00;99.90;;;;;;5145665;27;20210;-53
2021/05/17 01:19:01;;;;;;;1999.90;999.90;;;10.00;99.90;;;;;;5136972;27;20227;-45
2021/05/17 01:21:34;;;;;;;1999.90;999.90;;;10.00;99.90;;;;;;5136974;27;20158;-46
2021/05/17 01:24:01;;;;;;;1999.90;999.90;;;10.00;99.90;;;;;;5136777;27;20203;-46
2021/05/17 01:26:34;;;;;;;1999.90;999.90;;;10.00;99.90;;;;;;5136693;27;20213;-52
2021/05/17 01:29:06;;;;;;;1999.90;999.90;;;10.00;99.90;;;;;;5136955;27;20234;-45
2021/05/17 01:31:34;;;;;;;1999.90;999.90;;;10.00;99.90;;;;;;5136703;27;20161;-45
2021/05/17 01:34:01;;;;;;;1999.90;999.90;;;9.90;99.90;;;;;;5136676;27;20624;-45
2021/05/17 01:36:28;;;;;;;1999.90;999.90;;;9.90;99.90;;;;;;5136666;27;20177;-46
2021/05/17 01:38:56;;;;;;;1999.90;999.90;;;9.80;99.90;;;;;;5136490;27;20198;-45
2021/05/17 01:41:25;;;;;;;1999.90;999.90;;;9.80;99.90;;;;;;5136450;27;20198;-45
2021/05/17 01:43:54;;;;;;;1999.90;999.90;;;9.70;99.90;;;;;;5136491;27;20175;-45
2021/05/17 01:46:29;;;;;;;1999.90;999.90;;;9.70;99.90;;;;;;5136138;27;20244;-45
2021/05/17 01:48:57;;;;;;;1999.90;999.90;;;9.60;99.90;;;;;;5136373;27;20569;-45
2021/05/17 01:51:26;;;;;;;1999.90;999.90;;;9.60;99.90;;;;;;5136201;27;20163;-45
2021/05/17 01:53:53;;;;;;;1999.90;999.90;;;9.50;99.90;;;;;;5136248;27;20177;-52
2021/05/17 01:56:21;;;;;;;1999.90;999.90;;;9.50;99.90;;;;;;5136147;27;20174;-46
2021/05/17 01:58:48;;;;;;;1999.90;999.90;;;9.50;99.90;;;;;;5136211;27;20204;-45
2021/05/17 02:01:17;;;;;;;1999.90;999.90;;;9.40;99.90;;;;;;5136165;27;20171;-46
2021/05/17 02:03:46;;;;;;;1999.90;999.90;;;9.40;99.90;;;;;;5136035;27;20178;-46
2021/05/17 02:06:15;;;;;;;1999.90;999.90;;;9.40;99.90;;;;;;5135931;27;20255;-45
2021/05/17 02:08:48;;;;;;;1999.90;999.90;;;9.40;99.90;;;;;;5135918;27;20628;-54
2021/05/17 02:11:17;;;;;;;1999.90;999.90;;;9.40;99.90;;;;;;5135772;27;20173;-46
2021/05/17 02:13:44;;;;;;;1999.90;999.90;;;9.40;99.90;;;;;;5135874;27;20216;-45
2021/05/17 02:16:13;;;;;;;1999.90;999.90;;;9.30;99.90;;;;;;5135549;27;20226;-45
2021/05/17 02:18:41;;;;;;;1999.90;999.90;;;9.30;99.90;;;;;;5135625;27;20178;-49
2021/05/17 02:21:09;;;;;;;1999.90;999.90;;;9.30;99.90;;;;;;5135709;27;20170;-46
2021/05/17 02:23:37;;;;;;;1999.90;999.90;;;9.30;99.90;;;;;;5135713;27;20267;-45
2021/05/17 02:26:04;;;;;;;1999.90;999.90;;;9.30;99.90;;;;;;5135608;27;20554;-45
2021/05/17 02:28:32;;;;;;;1999.90;999.90;;;9.30;99.90;;;;;;5134533;27;20167;-45
2021/05/17 02:30:59;;;;;;;1999.90;999.90;;;9.30;99.90;;;;;;5135490;27;20215;-45
2021/05/17 02:33:26;;;;;;;1999.90;999.90;;;9.30;99.90;;;;;;5135483;27;20227;-45
2021/05/17 02:35:53;;;;;;;1999.90;999.90;;;9.30;99.90;;;;;;5135371;27;20198;-45
2021/05/17 02:38:20;;;;;;;1999.90;999.90;;;9.30;99.90;;;;;;5135333;27;20170;-45
2021/05/17 02:40:49;;;;;;;1999.90;999.90;;;9.30;99.90;;;;;;5135288;27;20162;-45
2021/05/17 02:43:20;;;;;;;1999.90;999.90;;;9.20;99.90;;;;;;5135261;27;20666;-45
2021/05/17 02:45:47;;;;;;;1999.90;999.90;;;9.30;99.90;;;;;;5135146;27;20198;-45
2021/05/17 02:48:14;;;;;;;1999.90;999.90;;;9.30;99.90;;;;;;5135110;27;20647;-45
2021/05/17 02:50:48;;;;;;;1999.90;999.90;;;9.30;99.90;;;;;;5135090;27;20253;-45
2021/05/17 02:53:41;;;;;;;1999.90;999.90;;;9.30;99.90;;;;;;5134944;27;20241;-45
2021/05/17 02:56:18;;;;;;;1999.90;999.90;;;9.30;99.90;;;;;;5096418;27;20186;-45
2021/05/17 02:58:46;;;;;;;1999.90;999.90;;;9.30;99.90;;;;;;5135013;27;20150;-45
2021/05/17 03:01:26;;;;;;;1999.90;999.90;;;9.30;99.90;;;;;;5134931;27;20647;-45
2021/05/17 03:03:56;;;;;;;1999.90;999.90;;;9.30;99.90;;;;;;5134897;27;20624;-45
2021/05/17 03:06:23;;;;;;;1999.90;999.90;;;9.20;99.90;;;;;;5134730;27;20668;-45
2021/05/17 03:09:06;;;;;;;1999.90;999.90;;;9.20;99.90;;;;;;5134633;27;20165;-45
2021/05/17 03:11:37;;;;;;;1999.90;999.90;;;9.20;99.90;;;;;;5134698;27;20170;-45
2021/05/17 03:14:05;;;;;;;1999.90;999.90;;;9.10;99.90;;;;;;5134642;27;20178;-45
2021/05/17 03:16:32;;;;;;;1999.90;999.90;;;9.00;99.90;;;;;;5134261;27;20225;-45
2021/05/17 03:19:01;;;;;;;1999.90;999.90;;;9.10;99.90;;;;;;5134504;27;20167;-45
2021/05/17 03:21:29;;;;;;;1999.90;999.90;;;9.10;99.90;;;;;;5134621;27;20192;-48
2021/05/17 03:23:56;;;;;;;1999.90;999.90;;;9.10;99.90;;;;;;5134480;27;20170;-45
2021/05/17 03:26:24;;;;;;;1999.90;999.90;;;9.10;99.90;;;;;;5134200;27;20202;-46
2021/05/17 03:28:51;;;;;;;1999.90;999.90;;;9.00;99.90;;;;;;5134357;27;20177;-44
2021/05/17 03:31:19;;;;;;;1999.90;999.90;;;9.10;99.90;;;;;;5134366;27;20170;-45
2021/05/17 03:33:46;;;;;;;1999.90;999.90;;;9.00;99.90;;;;;;5134340;27;20518;-47
2021/05/17 03:36:13;;;;;;;1999.90;999.90;;;9.00;99.90;;;;;;5134261;27;20166;-45
2021/05/17 03:38:39;;;;;;;1999.90;999.90;;;9.00;99.90;;;;;;5116295;27;20257;-44
2021/05/17 03:41:07;;;;;;;1999.90;999.90;;;9.00;99.90;;;;;;5133870;27;20224;-45
2021/05/17 03:43:34;;;;;;;1999.90;999.90;;;9.00;99.90;;;;;;5134176;27;20162;-45
2021/05/17 03:46:01;;;;;;;1999.90;999.90;;;8.90;99.90;;;;;;5134069;27;20194;-46
2021/05/17 03:48:28;;;;;;;1999.90;999.90;;;8.90;99.90;;;;;;5134166;27;20169;-45
2021/05/17 03:50:54;;;;;;;1999.90;999.90;;;9.00;99.90;;;;;;5134130;27;20181;-44
2021/05/17 03:53:21;;;;;;;1999.90;999.90;;;9.00;99.90;;;;;;5134044;27;20173;-44
2021/05/17 03:55:48;;;;;;;1999.90;999.90;;;9.00;99.90;;;;;;5134042;27;20177;-45
2021/05/17 03:58:15;;;;;;;1999.90;999.90;;;9.00;99.90;;;;;;5134438;27;20555;-44
2021/05/17 04:00:42;;;;;;;1999.90;999.90;;;8.90;99.90;;;;;;5133905;27;20170;-48
2021/05/17 04:03:17;;;;;;;1999.90;999.90;;;8.90;99.90;;;;;;5133987;27;20186;-45
2021/05/17 04:06:12;;;;;;;1999.90;999.90;;;8.90;99.90;;;;;;5133915;28;20197;-45
2021/05/17 04:13:54;;;;;;;1999.90;999.90;;;8.80;99.90;;;;;;5134081;28;20207;-44
2021/05/17 04:16:21;;;;;;;1999.90;999.90;;;8.80;99.90;;;;;;5133633;28;20213;-44
2021/05/17 04:18:48;;;;;;;1999.90;999.90;;;8.80;99.90;;;;;;5133623;28;20228;-44
2021/05/17 04:21:15;;;;;;;1999.90;999.90;;;8.80;99.90;;;;;;5133815;28;20185;-44
2021/05/17 04:23:42;;;;;;;1999.90;999.90;;;8.80;99.90;;;;;;5133819;28;20708;-45
2021/05/17 04:26:09;;;;;;;1999.90;999.90;;;8.80;99.90;;;;;;5133585;28;20201;-44
2021/05/17 04:28:36;;;;;;;1999.90;999.90;;;8.80;99.90;;;;;;5133590;28;20162;-44
2021/05/17 04:31:03;;;;;;;1999.90;999.90;;;8.70;99.90;;;;;;5133484;28;20165;-44
2021/05/17 04:33:29;;;;;;;1999.90;999.90;;;8.70;99.90;;;;;;5133557;28;20174;-45
2021/05/17 04:35:56;;;;;;;1999.90;999.90;;;8.70;99.90;;;;;;5133602;28;20228;-44
2021/05/17 04:38:23;;;;;;;1999.90;999.90;;;8.70;99.90;;;;;;5133579;28;20261;-45
2021/05/17 04:40:50;;;;;;;1999.90;999.90;;;8.60;99.90;;;;;;5133543;28;20628;-45
2021/05/17 04:43:17;;;;;;;1999.90;999.90;;;8.60;99.90;;;;;;5133612;28;20178;-46
2021/05/17 04:45:43;;;;;;;1999.90;999.90;;;8.60;99.90;;;;;;5133455;28;20206;-44
2021/05/17 04:48:10;;;;;;;1999.90;999.90;;;8.60;99.90;;;;;;5133422;28;20177;-44
2021/05/17 04:50:37;;;;;;;1999.90;999.90;;;8.60;99.90;;;;;;5133378;27;20165;-46
2021/05/17 04:53:04;;;;;;;1999.90;999.90;;;8.50;99.90;;;;;;5136341;27;20192;-46
2021/05/17 04:55:31;;;;;;;1999.90;999.90;;;8.50;99.90;;;;;;5137182;27;20201;-45
2021/05/17 04:57:58;;;;;;;1999.90;999.90;;;8.50;99.90;;;;;;5137292;27;20166;-45
2021/05/17 05:00:25;;;;;;;1999.90;999.90;;;8.50;99.90;;;;;;5137178;27;20239;-45
2021/05/17 05:02:52;;;;;;;1999.90;999.90;;;8.50;99.90;;;;;;5137199;27;20249;-44
2021/05/17 05:05:19;;;;;;;1999.90;999.90;;;8.50;99.90;;;;;;5137148;27;20194;-45
2021/05/17 05:07:46;;;;;;;1999.90;999.90;;;8.50;99.90;;;;;;5137170;27;20158;-45
2021/05/17 05:10:13;;;;;;;1999.90;999.90;;;8.50;99.90;;;;;;5136845;27;20253;-46
2021/05/17 05:12:40;;;;;;;1999.90;999.90;;;8.50;99.90;;;;;;5136862;27;20196;-45
2021/05/17 05:15:08;;;;;;;1999.90;999.90;;;8.50;99.90;;;;;;5136628;27;20289;-44
2021/05/17 05:17:35;;;;;;;1999.90;999.90;;;8.50;99.90;;;;;;5136963;27;20155;-44
2021/05/17 05:20:02;;;;;;;1999.90;999.90;;;8.50;99.90;;;;;;5136581;27;20174;-48
2021/05/17 05:22:29;;;;;;;1999.90;999.90;;;8.50;99.90;;;;;;5136974;27;20494;-45
2021/05/17 05:24:57;;;;;;;1999.90;999.90;;;8.40;99.90;;;;;;5136456;27;20238;-45
2021/05/17 05:32:36;;;;;;;1999.90;999.90;;;8.20;99.90;;;;;;5136495;27;20576;-48
2021/05/17 05:35:03;;;;;;;1999.90;999.90;;;8.30;99.90;;;;;;5136381;27;20161;-46
2021/05/17 05:37:30;;;;;;;1999.90;999.90;;;8.20;99.90;;;;;;5136435;27;20201;-47
2021/05/17 05:39:57;;;;;;;1999.90;999.90;;;8.30;99.90;;;;;;5136373;27;20185;-46
2021/05/17 05:42:24;;;;;;;1999.90;999.90;;;8.10;99.90;;;;;;5136215;27;20173;-47
2021/05/17 05:44:51;;;;;;;1999.90;999.90;;;8.10;99.90;;;;;;5117462;27;20233;-48
2021/05/17 05:47:18;;;;;;;1999.90;999.90;;;8.20;99.90;;;;;;5136066;27;20170;-45
2021/05/17 05:49:48;;;;;;;1999.90;999.90;;;8.20;99.90;;;;;;5135875;27;20188;-47
2021/05/17 05:52:16;;;;;;;1999.90;999.90;;;8.40;99.90;;;;;;5135770;27;20178;-48
2021/05/17 05:54:44;;;;;;;1999.90;999.90;;;8.40;99.90;;;;;;5135635;27;20179;-46
2021/05/17 05:57:11;;;;;;;1999.90;999.90;;;8.40;99.90;;;;;;5135444;27;20178;-47
2021/05/17 05:59:38;;;;;;;1999.90;999.90;;;8.40;99.90;;;;;;5135457;27;20169;-46
2021/05/17 06:14:31;;;;;;;1999.90;999.90;;;8.50;99.90;;;;;;5129106;27;20946;-51
2021/05/17 06:16:58;;;;;;;1999.90;999.90;;;9.40;99.90;;;;;;5128184;28;20205;-46
2021/05/17 06:19:25;;;;;;;1999.90;999.90;;;9.30;99.90;;;;;;5130634;28;20181;-40
2021/05/17 06:21:53;;;;;;;1999.90;999.90;;;9.20;99.90;;;;;;5128793;28;20174;-53
2021/05/17 06:24:21;;;;;;;1999.90;999.90;;;9.30;99.90;;;;;;5111916;28;20420;-58
2021/05/17 06:26:48;;;;;;;1999.90;999.90;;;10.60;99.90;;;;;;5088510;28;20242;-47
2021/05/17 06:29:15;;;;;;;1999.90;999.90;;;11.40;99.90;;;;;;5120520;28;20167;-51
2021/05/17 06:31:47;;;;;;;1999.90;999.90;;;11.70;99.90;;;;;;5110073;28;20688;-52
2021/05/17 06:34:14;;;;;;;1999.90;999.90;;;11.10;99.90;;;;;;5127679;28;20577;-55
2021/05/17 06:36:46;;;;;;;1999.90;999.90;;;10.90;99.90;;;;;;5113561;28;20178;-53
2021/05/17 06:39:13;;;;;;;1999.90;999.90;;;10.90;99.90;;;;;;5109847;28;20174;-54
2021/05/17 06:41:39;;;;;;;1999.90;999.90;;;10.80;99.90;;;;;;5109383;28;20179;-48
2021/05/17 06:44:07;;;;;;;1999.90;999.90;;;10.70;99.90;;;;;;5125637;28;20171;-59
2021/05/17 06:46:34;;;;;;;1999.90;999.90;;;10.80;99.90;;;;;;5129744;28;20167;-57
2021/05/17 06:49:01;;;;;;;1999.90;999.90;;;11.00;99.90;;;;;;5129121;28;20184;-56
2021/05/17 06:51:28;;;;;;;1999.90;999.90;;;10.90;99.90;;;;;;5128252;28;20167;-54
2021/05/17 06:53:58;;;;;;;1999.90;999.90;;;10.90;99.90;;;;;;5109292;28;20683;-51
2021/05/17 06:56:30;;;;;;;1999.90;999.90;;;10.90;99.90;;;;;;5109214;28;20179;-54
2021/05/17 06:58:58;;;;;;;1999.90;999.90;;;10.90;99.90;;;;;;5109212;28;20160;-56
2021/05/17 07:01:27;;;;;;;1999.90;999.90;;;10.90;99.90;;;;;;5108986;28;20171;-54
2021/05/17 07:03:57;;;;;;;1999.90;999.90;;;10.90;99.90;;;;;;5123408;28;20562;-56
2021/05/17 07:06:31;;;;;;;1999.90;999.90;;;10.90;99.90;;;;;;5109190;28;20518;-55
2021/05/17 07:14:12;;;;;;;1999.90;999.90;;;11.70;99.90;;;;;;5103630;28;20215;-58
2021/05/17 07:16:40;;;;;;;1999.90;999.90;;;11.70;99.90;;;;;;5094947;28;20215;-49
2021/05/17 07:19:14;;;;;;;1999.90;999.90;;;11.90;99.90;;;;;;5096443;28;20529;-47
2021/05/17 07:24:28;;;;;;;1999.90;999.90;;;11.80;99.90;;;;;;5115802;28;20170;-47
2021/05/17 07:26:55;;;;;;;1999.90;999.90;;;11.80;99.90;;;;;;5115648;28;20166;-42
2021/05/17 07:29:22;;;;;;;1999.90;999.90;;;12.00;99.90;;;;;;5114979;28;20171;-43
2021/05/17 07:31:49;;;;;;;1999.90;999.90;;;12.00;99.90;;;;;;5112048;28;20229;-43
2021/05/17 07:34:18;;;;;;;1999.90;999.90;;;12.20;99.90;;;;;;5094825;28;20200;-41
2021/05/17 07:36:47;;;;;;;1999.90;999.90;;;12.20;99.90;;;;;;5094809;28;20231;-41
2021/05/17 07:39:15;;;;;;;1999.90;999.90;;;12.30;99.90;;;;;;5107113;28;20249;-41
2021/05/17 07:41:42;;;;;;;1999.90;999.90;;;12.30;99.90;;;;;;5111356;28;20221;-44
2021/05/17 07:44:10;;;;;;;1999.90;999.90;;;12.30;99.90;;;;;;5096619;28;20179;-48
2021/05/17 07:46:37;;;;;;;1999.90;999.90;;;12.40;99.90;;;;;;5113164;28;20183;-47
2021/05/17 07:49:09;;;;;;;1999.90;999.90;;;12.40;99.90;;;;;;5114919;28;20166;-48
2021/05/17 07:51:42;;;;;;;1999.90;999.90;;;12.50;99.90;;;;;;5104431;28;20221;-49
2021/05/17 07:54:10;;;;;;;1999.90;999.90;;;12.60;99.90;;;;;;5094140;28;20196;-54
2021/05/17 07:56:37;;;;;;;1999.90;999.90;;;12.70;99.90;;;;;;5094623;28;20199;-56
2021/05/17 07:59:05;;;;;;;1999.90;999.90;;;12.70;99.90;;;;;;5094480;28;20540;-57
2021/05/17 08:01:32;;;;;;;1999.90;999.90;;;13.00;99.90;;;;;;5096739;28;20259;-50
2021/05/17 08:03:59;;;;;;;1999.90;999.90;;;13.20;99.90;;;;;;5093840;28;20203;-56
2021/05/17 08:06:26;;;;;;;1999.90;999.90;;;13.40;99.90;;;;;;5091930;28;20847;-54
2021/05/17 08:08:54;;;;;;;1999.90;999.90;;;13.40;99.90;;;;;;5101405;28;20174;-48
2021/05/17 08:11:21;;;;;;;1999.90;999.90;;;13.50;99.90;;;;;;5098982;28;20215;-57
2021/05/17 08:13:48;;;;;;;1999.90;999.90;;;13.70;99.90;;;;;;5093743;28;20337;-52
2021/05/17 08:36:26;;;;;;;1999.90;999.90;;;13.70;99.90;;;;;;5068292;28;20579;-50
2021/05/17 08:38:53;;;;;;;1999.90;999.90;;;14.80;99.90;;;;;;5069105;28;20653;-49
2021/05/17 08:41:20;;;;;;;1999.90;999.90;;;14.80;99.90;;;;;;5068028;28;20231;-48
2021/05/17 08:43:47;;;;;;;1999.90;999.90;;;14.90;99.00;;;;;;5068684;28;20694;-50
2021/05/17 08:46:15;;;;;;;1999.90;999.90;;;15.00;97.80;;;;;;5068756;28;20656;-45
2021/05/17 08:48:49;;;;;;;1999.90;999.90;;;15.20;99.90;;;;;;5067159;28;20183;-52
2021/05/17 08:51:28;;;;;;;1999.90;999.90;;;15.50;97.10;;;;;;5066639;28;20237;-48
2021/05/17 08:53:59;;;;;;;1999.90;999.90;;;15.60;96.20;;;;;;5048875;28;20640;-49
2021/05/17 08:56:26;;;;;;;1999.90;999.90;;;16.20;95.60;;;;;;5066679;28;20562;-54
2021/05/17 08:59:05;;;;;;;1999.90;999.90;;;16.10;94.90;;;;;;5049259;28;20178;-51
2021/05/17 09:01:33;;;;;;;1999.90;999.90;;;16.10;96.30;;;;;;5066819;28;20591;-57
2021/05/17 09:03:59;;;;;;;1999.90;999.90;;;16.10;94.90;;;;;;5067802;28;20180;-50
2021/05/17 09:06:48;;;;;;;1999.90;999.90;;;16.10;94.10;;;;;;5068610;28;20176;-53
2021/05/17 09:09:32;;;;;;;1999.90;999.90;;;16.10;92.00;;;;;;5068524;28;20249;-56
2021/05/17 09:12:09;;;;;;;1999.90;999.90;;;16.30;94.60;;;;;;5068629;28;20222;-51
2021/05/17 09:14:37;;;;;;;1999.90;999.90;;;16.40;91.00;;;;;;5068580;28;20196;-50
2021/05/17 09:17:07;;;;;;;1999.90;999.90;;;16.40;91.80;;;;;;5067922;28;20160;-46
2021/05/17 09:19:34;;;;;;;1999.90;999.90;;;16.30;92.00;;;;;;5068370;28;20204;-51
2021/05/17 09:22:18;;;;;;;1999.90;999.90;;;16.40;92.50;;;;;;5068297;28;20168;-53
2021/05/17 09:24:52;;;;;;;1999.90;999.90;;;16.60;90.60;;;;;;5068166;28;20153;-51
2021/05/17 09:27:21;;;;;;;1999.90;999.90;;;16.60;90.90;;;;;;5059096;28;20240;-49
2021/05/17 09:29:53;;;;;;;1999.90;999.90;;;16.70;88.20;;;;;;5054915;28;20169;-53
2021/05/17 09:32:24;;;;;;;1999.90;999.90;;;16.80;86.80;;;;;;5054983;28;20181;-51
2021/05/17 09:35:01;;;;;;;1999.90;999.90;;;16.90;87.00;;;;;;5054706;28;20240;-54
2021/05/17 09:37:42;;;;;;;1999.90;999.90;;;16.70;87.00;;;;;;5054494;28;20177;-54
2021/05/17 09:40:24;;;;;;;1999.90;999.90;;;16.50;89.40;;;;;;5054566;28;20153;-51
2021/05/17 09:43:19;;;;;;;1999.90;999.90;;;16.70;88.30;;;;;;5050459;28;20181;-56
2021/05/17 09:45:48;;;;;;;1999.90;999.90;;;17.00;85.10;;;;;;5046035;28;20173;-55
2021/05/17 09:48:21;;;;;;;1999.90;999.90;;;17.10;83.90;;;;;;5054660;28;20195;-51
2021/05/17 09:51:16;;;;;;;1999.90;999.90;;;17.20;81.50;;;;;;5054591;28;20176;-53
2021/05/17 09:53:48;;;;;;;1999.90;999.90;;;17.20;84.70;;;;;;5052840;28;20652;-51
2021/05/17 09:56:22;;;;;;;1999.90;999.90;;;17.60;85.40;;;;;;5054405;28;20193;-46
2021/05/17 09:59:02;;;;;;;1999.90;999.90;;;18.00;84.60;;;;;;5054297;28;20172;-54
2021/05/17 10:01:31;;;;;;;1999.90;999.90;;;19.00;80.50;;;;;;5053707;28;20168;-57
2021/05/17 10:04:05;;;;;;;1999.90;999.90;;;19.80;76.80;;;;;;5054398;28;20161;-52
2021/05/17 10:06:32;;;;;;;1999.90;999.90;;;20.60;68.40;;;;;;5053841;28;20169;-52
2021/05/17 10:08:59;;;;;;;1999.90;999.90;;;20.40;68.50;;;;;;5054582;28;20247;-55
2021/05/17 10:11:28;;;;;;;1999.90;999.90;;;20.30;69.90;;;;;;5054420;28;20180;-55
2021/05/17 10:13:55;;;;;;;1999.90;999.90;;;20.00;69.90;;;;;;5054567;28;20204;-54
2021/05/17 10:16:23;;;;;;;1999.90;999.90;;;19.80;70.60;;;;;;5054362;28;20197;-52
2021/05/17 10:18:50;;;;;;;1999.90;999.90;;;19.50;69.90;;;;;;5053752;28;20177;-49
2021/05/17 10:21:21;;;;;;;1999.90;999.90;;;19.50;73.00;;;;;;5053878;28;20260;-49
2021/05/17 10:23:48;;;;;;;1999.90;999.90;;;19.60;69.80;;;;;;5054087;28;20169;-53
2021/05/17 10:26:18;;;;;;;1999.90;999.90;;;19.70;71.30;;;;;;5053877;28;20215;-53
2021/05/17 10:28:55;;;;;;;1999.90;999.90;;;19.50;70.80;;;;;;5053595;28;20634;-51
2021/05/17 10:31:24;;;;;;;1999.90;999.90;;;19.60;70.60;;;;;;5053988;28;20161;-49
2021/05/17 10:34:17;;;;;;;1999.90;999.90;;;19.50;70.60;;;;;;5053448;28;20643;-49
2021/05/17 10:37:02;;;;;;;1999.90;999.90;;;19.70;75.90;;;;;;5051972;28;20201;-54
2021/05/17 10:39:36;;;;;;;1999.90;999.90;;;20.10;71.40;;;;;;5052617;28;20167;-52
2021/05/17 10:47:47;;;;;;;1999.90;999.90;;;20.80;69.40;;;;;;5053326;28;20533;-57
2021/05/17 10:50:21;;;;;;;1999.90;999.90;;;20.00;68.30;;;;;;5053436;28;20192;-57
2021/05/17 10:52:48;;;;;;;1999.90;999.90;;;19.50;70.00;;;;;;5053590;28;20166;-56
2021/05/17 10:55:16;;;;;;;1999.90;999.90;;;19.60;69.40;;;;;;5053398;28;20669;-56
2021/05/17 11:00:36;;;;;;;1999.90;999.90;;;19.60;69.60;;;;;;5052997;28;20169;-56
2021/05/17 11:03:24;;;;;;;1999.90;999.90;;;19.50;69.10;;;;;;5053056;28;20682;-55
2021/05/17 11:05:54;;;;;;;1999.90;999.90;;;19.40;68.10;;;;;;5053309;28;20158;-58
2021/05/17 11:08:23;;;;;;;1999.90;999.90;;;19.40;66.20;;;;;;5052812;28;20635;-55
2021/05/17 11:10:55;;;;;;;1999.90;999.90;;;19.40;68.10;;;;;;5052940;28;20575;-58
2021/05/17 11:13:28;;;;;;;1999.90;999.90;;;19.50;68.40;;;;;;5053141;28;20177;-56
2021/05/17 11:16:06;;;;;;;1999.90;999.90;;;19.40;70.60;;;;;;5052994;28;20189;-51
2021/05/17 11:18:47;;;;;;;1999.90;999.90;;;19.40;73.60;;;;;;5053013;28;20618;-57
2021/05/17 11:21:21;;;;;;;1999.90;999.90;;;19.50;69.70;;;;;;5052950;28;20240;-57
2021/05/17 11:23:54;;;;;;;1999.90;999.90;;;19.50;71.50;;;;;;5053017;28;20673;-59
2021/05/17 11:26:23;;;;;;;1999.90;999.90;;;19.50;70.90;;;;;;5052817;28;20168;-59
2021/05/17 11:28:54;;;;;;;1999.90;999.90;;;19.60;73.90;;;;;;5052782;28;20177;-58
2021/05/17 11:33:54;;;;;;;1999.90;999.90;;;20.10;71.20;;;;;;5052979;28;20635;-55
2021/05/17 11:36:31;;;;;;;1999.90;999.90;;;20.20;66.50;;;;;;5052810;28;20216;-53
2021/05/17 11:39:18;;;;;;;1999.90;999.90;;;20.10;65.50;;;;;;5052593;28;20165;-56
2021/05/17 11:41:57;;;;;;;1999.90;999.90;;;20.00;64.50;;;;;;5052558;28;20519;-53
2021/05/17 11:47:19;;;;;;;1999.90;999.90;;;19.90;65.10;;;;;;5052686;28;20244;-56
2021/05/17 11:49:48;;;;;;;1999.90;999.90;;;19.70;66.10;;;;;;5052413;28;20822;-61
2021/05/17 11:52:26;;;;;;;1999.90;999.90;;;19.40;73.40;;;;;;5052745;28;20166;-62
2021/05/17 11:55:14;;;;;;;1999.90;999.90;;;19.50;72.00;;;;;;5052686;28;20192;-58
2021/05/17 11:57:42;;;;;;;1999.90;999.90;;;19.60;68.70;;;;;;5052258;28;20177;-51
2021/05/17 12:00:11;;;;;;;1999.90;999.90;;;19.80;70.50;;;;;;5052859;28;20165;-59
2021/05/17 12:02:44;;;;;;;1999.90;999.90;;;19.80;69.90;;;;;;5052544;28;20173;-60
2021/05/17 12:05:11;;;;;;;1999.90;999.90;;;20.10;64.60;;;;;;5052312;28;20569;-58
2021/05/17 12:07:52;;;;;;;1999.90;999.90;;;20.10;62.70;;;;;;5052542;28;20224;-60
2021/05/17 12:10:20;;;;;;;1999.90;999.90;;;20.20;63.40;;;;;;5052191;28;20203;-59
2021/05/17 12:12:49;;;;;;;1999.90;999.90;;;20.20;60.80;;;;;;5051835;28;20184;-60
2021/05/17 12:15:17;;;;;;;1999.90;999.90;;;20.30;60.90;;;;;;5052567;28;20232;-56
2021/05/17 12:17:44;;;;;;;1999.90;999.90;;;20.60;59.20;;;;;;5052050;28;20162;-50
2021/05/17 12:20:13;;;;;;;1999.90;999.90;;;20.70;59.20;;;;;;5052258;28;20697;-55
2021/05/17 12:22:48;;;;;;;1999.90;999.90;;;21.20;58.40;;;;;;5052221;28;20165;-49
2021/05/17 12:25:23;;;;;;;1999.90;999.90;;;21.20;56.20;;;;;;5052463;28;20638;-58
2021/05/17 12:27:52;;;;;;;1999.90;999.90;;;21.10;56.80;;;;;;5052265;28;20576;-53
2021/05/17 12:30:28;;;;;;;1999.90;999.90;;;20.80;58.40;;;;;;5052353;28;20181;-54
2021/05/17 12:32:58;;;;;;;1999.90;999.90;;;20.70;59.60;;;;;;5052100;28;20171;-58
2021/05/17 12:35:24;;;;;;;1999.90;999.90;;;20.50;59.20;;;;;;5051913;28;20275;-58
2021/05/17 12:38:15;;;;;;;1999.90;999.90;;;20.40;59.80;;;;;;5051823;28;20169;-57
2021/05/17 12:40:46;;;;;;;1999.90;999.90;;;20.10;58.20;;;;;;5051702;28;20162;-56
2021/05/17 12:43:20;;;;;;;1999.90;999.90;;;20.00;58.70;;;;;;5051856;28;20169;-49
2021/05/17 12:45:50;;;;;;;1999.90;999.90;;;19.90;58.20;;;;;;5051679;28;20200;-45
2021/05/17 12:48:31;;;;;;;1999.90;999.90;;;20.00;62.80;;;;;;5051640;28;20173;-59
2021/05/17 12:51:00;;;;;;;1999.90;999.90;;;20.30;60.30;;;;;;5051949;28;20165;-59
2021/05/17 12:53:30;;;;;;;1999.90;999.90;;;20.60;59.00;;;;;;5051862;28;20168;-61
2021/05/17 12:56:01;;;;;;;1999.90;999.90;;;20.70;58.80;;;;;;5051905;28;20193;-62
2021/05/17 12:58:42;;;;;;;1999.90;999.90;;;20.90;58.80;;;;;;5051906;28;20320;-60
2021/05/17 13:01:11;;;;;;;1999.90;999.90;;;21.00;58.50;;;;;;5050964;28;20234;-60
2021/05/17 13:03:46;;;;;;;1999.90;999.90;;;21.00;56.60;;;;;;5055169;28;20548;-55
2021/05/17 13:06:27;;;;;;;1999.90;999.90;;;20.10;57.30;;;;;;5055620;28;20226;-52
2021/05/17 13:08:57;;;;;;;1999.90;999.90;;;19.50;60.30;;;;;;5055476;28;20180;-50
2021/05/17 13:11:34;;;;;;;1999.90;999.90;;;19.20;60.30;;;;;;5055725;28;20196;-52
2021/05/17 13:14:12;;;;;;;1999.90;999.90;;;18.90;61.40;;;;;;5055279;28;20161;-56
2021/05/17 13:16:39;;;;;;;1999.90;999.90;;;18.80;62.60;;;;;;5054742;28;20283;-57
2021/05/17 13:33:17;;;;;;;1999.90;999.90;;;19.10;59.60;;;;;;5055391;28;20157;-47
2021/05/17 13:35:46;;;;;;;1999.90;999.90;;;19.10;59.60;;;;;;5054845;28;20220;-47
2021/05/17 13:38:13;;;;;;;1999.90;999.90;;;19.10;57.40;;;;;;5055338;28;20200;-46
2021/05/17 13:40:40;;;;;;;1999.90;999.90;;;19.20;53.90;;;;;;5055356;28;20165;-47
2021/05/17 13:43:07;;;;;;;1999.90;999.90;;;19.20;53.50;;;;;;5055574;28;20569;-45
2021/05/17 13:45:34;;;;;;;1999.90;999.90;;;19.20;52.40;;;;;;5055164;28;20165;-47
2021/05/17 13:48:01;;;;;;;1999.90;999.90;;;19.20;54.00;;;;;;5055317;28;20195;-53
2021/05/17 13:50:27;;;;;;;1999.90;999.90;;;19.10;54.50;;;;;;5055371;28;20169;-45